Time;durP1;ratioP1;P1;durP2;ratioP2;P2;SDS_P1;SDS_P2;PMS_P1;PMS_P2;Temp;Humidity;BMP_temperature;BMP_pressure;BME280_temperature;BME280_humidity;BME280_pressure;Samples;Min_cycle;Max_cycle;Signal;HPM_P1;HPM_P2
2021/04/24 00:27:46;;;;;;;10.77;6.85;;;;;;;;;;4311680;28;20085;-66
2021/04/24 00:30:13;;;;;;;8.30;5.85;;;;;;;;;;4137447;34;20211;-67
2021/04/24 00:32:39;;;;;;;8.80;5.62;;;;;;;;;;4137463;34;20212;-69
2021/04/24 00:35:06;;;;;;;9.43;5.60;;;;;;;;;;4137241;34;20127;-68
2021/04/24 00:37:31;;;;;;;7.32;5.07;;;;;;;;;;4137664;34;20538;-69
2021/04/24 00:39:57;;;;;;;9.38;5.07;;;;;;;;;;4137955;34;20204;-70
2021/04/24 00:42:23;;;;;;;8.80;5.03;;;;;;;;;;4137833;34;20182;-68
2021/04/24 00:44:50;;;;;;;5.35;3.67;;;;;;;;;;4137314;34;20142;-68
2021/04/24 00:47:19;;;;;;;5.90;4.40;;;;;;;;;;4137218;34;20187;-69
2021/04/24 00:49:45;;;;;;;5.07;3.90;;;;;;;;;;4136787;34;20638;-68
2021/04/24 00:52:11;;;;;;;6.20;4.60;;;;;;;;;;4137317;34;20122;-68
2021/04/24 00:54:37;;;;;;;9.15;4.60;;;;;;;;;;4137338;34;20510;-68
2021/04/24 00:57:03;;;;;;;10.52;5.65;;;;;;;;;;4137704;34;20202;-68
2021/04/24 00:59:29;;;;;;;8.60;5.53;;;;;;;;;;4137403;34;20123;-69
2021/04/24 01:01:55;;;;;;;9.45;6.28;;;;;;;;;;4137216;34;20119;-69
2021/04/24 01:04:21;;;;;;;10.68;6.20;;;;;;;;;;4137133;34;20479;-70
2021/04/24 01:06:48;;;;;;;10.10;5.70;;;;;;;;;;4125340;34;20111;-68
2021/04/24 01:09:14;;;;;;;13.30;5.10;;;;;;;;;;4137284;34;20567;-69
2021/04/24 01:11:39;;;;;;;10.95;5.90;;;;;;;;;;4137087;34;20546;-68
2021/04/24 01:14:05;;;;;;;16.08;8.82;;;;;;;;;;4137389;34;20135;-68
2021/04/24 01:16:31;;;;;;;9.25;5.97;;;;;;;;;;4137245;34;20519;-68
2021/04/24 01:18:57;;;;;;;9.45;5.95;;;;;;;;;;4137020;34;20163;-69
2021/04/24 01:21:23;;;;;;;7.72;4.93;;;;;;;;;;4124910;34;20111;-68
2021/04/24 01:23:50;;;;;;;9.25;5.18;;;;;;;;;;4136982;34;20123;-68
2021/04/24 01:26:16;;;;;;;9.32;5.78;;;;;;;;;;4137855;34;20441;-69
2021/04/24 01:28:42;;;;;;;8.88;4.82;;;;;;;;;;4125129;34;20139;-69
2021/04/24 01:31:08;;;;;;;8.75;4.68;;;;;;;;;;4124871;34;20189;-68
2021/04/24 01:33:34;;;;;;;10.45;6.12;;;;;;;;;;4136900;34;20476;-68
2021/04/24 01:35:59;;;;;;;7.82;5.37;;;;;;;;;;4124262;34;20120;-68
2021/04/24 01:38:26;;;;;;;8.85;4.93;;;;;;;;;;4124322;34;20147;-68
2021/04/24 01:40:51;;;;;;;10.95;5.72;;;;;;;;;;4136882;34;20123;-69
2021/04/24 01:43:17;;;;;;;13.73;6.72;;;;;;;;;;4124439;34;20138;-69
2021/04/24 01:45:43;;;;;;;7.53;5.15;;;;;;;;;;4137134;34;20485;-68
2021/04/24 01:48:09;;;;;;;11.70;5.00;;;;;;;;;;4124076;34;20118;-68
2021/04/24 01:50:41;;;;;;;9.13;5.25;;;;;;;;;;4136554;34;20123;-70
2021/04/24 01:53:09;;;;;;;11.60;5.80;;;;;;;;;;4136518;34;20478;-69
2021/04/24 01:55:35;;;;;;;18.48;13.02;;;;;;;;;;4124284;34;20140;-68
2021/04/24 01:58:04;;;;;;;20.88;14.95;;;;;;;;;;4113005;34;20104;-70
2021/04/24 02:00:37;;;;;;;19.83;11.60;;;;;;;;;;4136614;34;20162;-69
2021/04/24 02:03:08;;;;;;;21.05;16.20;;;;;;;;;;4138974;34;20466;-69
2021/04/24 02:05:34;;;;;;;21.15;17.17;;;;;;;;;;4138462;34;20119;-69
2021/04/24 02:08:10;;;;;;;21.40;16.62;;;;;;;;;;4126831;34;20111;-69
2021/04/24 02:10:36;;;;;;;20.27;17.02;;;;;;;;;;4139139;34;20111;-69
2021/04/24 02:13:08;;;;;;;16.33;13.32;;;;;;;;;;4138512;34;20092;-68
2021/04/24 02:15:34;;;;;;;12.00;9.05;;;;;;;;;;4126786;34;20142;-68
2021/04/24 02:18:00;;;;;;;9.75;8.18;;;;;;;;;;4138463;34;20198;-68
2021/04/24 02:20:25;;;;;;;10.90;7.05;;;;;;;;;;4138747;34;20206;-68
2021/04/24 02:22:51;;;;;;;11.32;5.70;;;;;;;;;;4125977;34;20138;-70
2021/04/24 02:25:17;;;;;;;8.65;4.90;;;;;;;;;;4138203;34;20142;-68
2021/04/24 02:27:43;;;;;;;9.25;4.97;;;;;;;;;;4138767;34;20119;-69
2021/04/24 02:30:10;;;;;;;8.32;4.57;;;;;;;;;;4126307;34;20531;-68
2021/04/24 02:32:38;;;;;;;9.38;4.22;;;;;;;;;;4138482;34;20196;-69
2021/04/24 02:35:05;;;;;;;11.68;4.12;;;;;;;;;;4125879;34;20100;-68
2021/04/24 02:37:30;;;;;;;7.45;4.20;;;;;;;;;;4138327;34;20103;-70
2021/04/24 02:39:56;;;;;;;4.50;3.42;;;;;;;;;;4138540;34;20301;-69
2021/04/24 02:42:27;;;;;;;8.90;4.07;;;;;;;;;;4138118;34;20102;-69
2021/04/24 02:44:54;;;;;;;5.10;3.47;;;;;;;;;;4138344;34;20115;-68
2021/04/24 02:47:20;;;;;;;6.18;3.47;;;;;;;;;;4138227;34;20138;-68
2021/04/24 02:49:46;;;;;;;6.72;3.42;;;;;;;;;;4138227;34;20120;-68
2021/04/24 02:52:12;;;;;;;5.12;3.80;;;;;;;;;;4138609;34;20764;-68
2021/04/24 02:54:38;;;;;;;6.90;3.72;;;;;;;;;;4138927;34;20210;-68
2021/04/24 02:57:04;;;;;;;10.23;3.80;;;;;;;;;;4138367;34;20574;-68
2021/04/24 02:59:30;;;;;;;6.70;4.10;;;;;;;;;;4138366;34;20228;-68
2021/04/24 03:01:56;;;;;;;4.75;3.40;;;;;;;;;;4139822;34;20131;-70
2021/04/24 03:04:22;;;;;;;9.52;3.80;;;;;;;;;;4138128;34;20135;-70
2021/04/24 03:06:48;;;;;;;4.90;3.62;;;;;;;;;;4138349;34;20233;-69
2021/04/24 03:09:14;;;;;;;10.27;3.90;;;;;;;;;;4125754;34;20131;-67
2021/04/24 03:11:39;;;;;;;9.43;3.70;;;;;;;;;;4137782;34;20533;-70
2021/04/24 03:14:06;;;;;;;6.30;3.12;;;;;;;;;;4125474;34;20140;-68
2021/04/24 03:16:32;;;;;;;7.25;3.78;;;;;;;;;;4138349;34;20139;-68
2021/04/24 03:18:58;;;;;;;5.65;3.40;;;;;;;;;;4138100;34;20092;-68
2021/04/24 03:21:24;;;;;;;5.28;3.95;;;;;;;;;;4125547;34;20553;-68
2021/04/24 03:23:51;;;;;;;6.15;3.15;;;;;;;;;;4125682;34;20200;-68
2021/04/24 03:26:16;;;;;;;6.18;3.12;;;;;;;;;;4138363;34;20120;-69
2021/04/24 03:28:42;;;;;;;4.20;3.45;;;;;;;;;;4138207;34;20522;-68
2021/04/24 03:31:09;;;;;;;8.50;3.92;;;;;;;;;;4137935;34;20123;-68
2021/04/24 03:33:35;;;;;;;5.68;3.47;;;;;;;;;;4138170;34;20092;-68
2021/04/24 03:36:01;;;;;;;5.57;3.62;;;;;;;;;;4137898;34;20193;-69
2021/04/24 03:38:27;;;;;;;9.27;3.70;;;;;;;;;;4137794;34;20535;-68
2021/04/24 03:40:53;;;;;;;6.53;3.20;;;;;;;;;;4137717;34;20692;-67
2021/04/24 03:43:19;;;;;;;6.82;3.87;;;;;;;;;;4138111;34;20118;-68
2021/04/24 03:45:45;;;;;;;5.95;3.53;;;;;;;;;;4138547;34;20122;-69
2021/04/24 03:48:10;;;;;;;4.87;4.37;;;;;;;;;;4125575;34;20087;-68
2021/04/24 03:50:36;;;;;;;9.98;5.65;;;;;;;;;;4138147;34;20208;-69
2021/04/24 03:53:02;;;;;;;7.30;5.72;;;;;;;;;;4137772;34;20455;-68
2021/04/24 03:55:28;;;;;;;6.57;4.12;;;;;;;;;;4137679;34;20140;-68
2021/04/24 03:57:54;;;;;;;6.40;4.12;;;;;;;;;;4138034;34;20228;-68
2021/04/24 04:00:22;;;;;;;12.37;6.68;;;;;;;;;;4125734;34;20149;-70
2021/04/24 04:02:55;;;;;;;9.05;4.12;;;;;;;;;;4125051;34;20114;-69
2021/04/24 04:05:21;;;;;;;7.55;4.05;;;;;;;;;;4137609;34;20096;-70
2021/04/24 04:07:47;;;;;;;10.82;3.67;;;;;;;;;;4137502;34;20107;-71
2021/04/24 04:10:14;;;;;;;9.90;4.37;;;;;;;;;;4125193;34;20149;-68
2021/04/24 04:12:39;;;;;;;9.02;4.47;;;;;;;;;;4137549;34;20171;-69
2021/04/24 04:15:06;;;;;;;8.80;3.50;;;;;;;;;;4137465;34;20532;-68
2021/04/24 04:17:32;;;;;;;5.75;4.00;;;;;;;;;;4138062;34;20143;-69
2021/04/24 04:19:58;;;;;;;7.30;4.22;;;;;;;;;;4137522;34;20122;-68
2021/04/24 04:22:25;;;;;;;10.48;4.85;;;;;;;;;;4138315;34;20104;-67
2021/04/24 04:24:51;;;;;;;5.78;4.68;;;;;;;;;;4136601;34;20119;-69
2021/04/24 04:27:17;;;;;;;6.65;5.25;;;;;;;;;;4137639;34;20119;-68
2021/04/24 04:29:43;;;;;;;7.20;4.93;;;;;;;;;;4137309;34;20499;-71
2021/04/24 04:32:08;;;;;;;8.77;5.07;;;;;;;;;;4125157;34;20120;-68
2021/04/24 04:34:34;;;;;;;6.55;5.60;;;;;;;;;;4137385;34;20147;-69
2021/04/24 04:37:00;;;;;;;6.78;4.78;;;;;;;;;;4137525;34;20127;-67
2021/04/24 04:39:26;;;;;;;8.07;5.22;;;;;;;;;;4137360;34;20135;-67
2021/04/24 04:41:52;;;;;;;8.52;4.30;;;;;;;;;;4137147;34;20648;-69
2021/04/24 04:44:18;;;;;;;8.20;4.57;;;;;;;;;;4137385;34;20198;-67
2021/04/24 04:46:44;;;;;;;9.77;5.32;;;;;;;;;;4124979;34;20127;-67
2021/04/24 04:49:09;;;;;;;5.37;4.82;;;;;;;;;;4137378;34;20138;-68
2021/04/24 04:51:35;;;;;;;9.15;6.03;;;;;;;;;;4137065;34;20131;-68
2021/04/24 04:54:01;;;;;;;10.35;8.30;;;;;;;;;;4137111;34;20483;-68
2021/04/24 04:56:27;;;;;;;8.05;6.05;;;;;;;;;;4136865;34;20123;-70
2021/04/24 04:58:53;;;;;;;7.35;6.10;;;;;;;;;;4137034;34;20145;-71
2021/04/24 05:01:20;;;;;;;13.85;10.68;;;;;;;;;;4137565;34;20452;-67
2021/04/24 05:03:46;;;;;;;9.27;7.07;;;;;;;;;;4137229;34;20111;-68
2021/04/24 05:06:12;;;;;;;9.55;7.93;;;;;;;;;;4124756;34;20147;-69
2021/04/24 05:08:37;;;;;;;10.63;6.10;;;;;;;;;;4137192;34;20127;-67
2021/04/24 05:11:04;;;;;;;6.65;4.80;;;;;;;;;;4124739;34;20115;-71
2021/04/24 05:13:30;;;;;;;7.28;4.55;;;;;;;;;;4113867;34;20107;-71
2021/04/24 05:15:56;;;;;;;5.05;4.40;;;;;;;;;;4124539;34;20184;-66
2021/04/24 05:18:22;;;;;;;6.78;5.32;;;;;;;;;;4137076;34;20123;-65
2021/04/24 05:20:48;;;;;;;5.78;4.43;;;;;;;;;;4136910;34;20174;-67
2021/04/24 05:23:14;;;;;;;6.85;5.00;;;;;;;;;;4135994;34;20096;-63
2021/04/24 05:25:40;;;;;;;6.55;4.25;;;;;;;;;;4131545;34;20147;-66
2021/04/24 05:28:06;;;;;;;6.68;4.55;;;;;;;;;;4129013;34;20124;-65
2021/04/24 05:30:31;;;;;;;5.05;4.37;;;;;;;;;;4136536;34;20127;-64
2021/04/24 05:32:58;;;;;;;5.85;4.82;;;;;;;;;;4127342;34;20122;-65
2021/04/24 05:35:24;;;;;;;4.78;4.20;;;;;;;;;;4124156;34;20649;-66
2021/04/24 05:37:50;;;;;;;7.40;4.93;;;;;;;;;;4112894;34;20115;-65
2021/04/24 05:40:16;;;;;;;5.68;4.15;;;;;;;;;;4127876;34;20527;-65
2021/04/24 05:42:42;;;;;;;6.62;4.30;;;;;;;;;;4138542;34;20131;-65
2021/04/24 05:45:12;;;;;;;5.53;4.05;;;;;;;;;;4138527;34;20689;-68
2021/04/24 05:47:47;;;;;;;6.50;4.53;;;;;;;;;;4138406;34;20122;-67
2021/04/24 05:50:14;;;;;;;5.47;4.40;;;;;;;;;;4126790;34;20119;-64
2021/04/24 05:52:40;;;;;;;5.40;4.85;;;;;;;;;;4126104;34;20658;-67
2021/04/24 05:55:07;;;;;;;7.22;5.40;;;;;;;;;;4125794;34;20143;-68
2021/04/24 05:57:33;;;;;;;7.12;6.32;;;;;;;;;;4134419;34;20131;-73
2021/04/24 05:59:59;;;;;;;8.32;7.20;;;;;;;;;;4112701;34;20124;-65
2021/04/24 06:02:25;;;;;;;19.05;12.75;;;;;;;;;;4125000;34;20127;-65
2021/04/24 06:04:51;;;;;;;15.57;11.73;;;;;;;;;;4124837;34;20332;-65
2021/04/24 06:07:17;;;;;;;17.02;13.18;;;;;;;;;;4112912;34;20184;-66
2021/04/24 06:09:43;;;;;;;12.73;10.55;;;;;;;;;;4124880;34;20578;-67
2021/04/24 06:12:09;;;;;;;10.35;7.30;;;;;;;;;;4124698;34;20461;-66
2021/04/24 06:14:35;;;;;;;8.30;5.90;;;;;;;;;;4124802;34;20139;-67
2021/04/24 06:17:01;;;;;;;7.93;5.10;;;;;;;;;;4124832;34;20124;-66
2021/04/24 06:19:28;;;;;;;11.73;6.07;;;;;;;;;;4125115;34;20493;-67
2021/04/24 06:21:54;;;;;;;5.97;5.28;;;;;;;;;;4112468;34;20111;-66
2021/04/24 06:24:20;;;;;;;6.12;4.72;;;;;;;;;;4124659;34;20139;-67
2021/04/24 06:26:46;;;;;;;8.65;5.00;;;;;;;;;;4137400;34;20106;-66
2021/04/24 06:29:12;;;;;;;6.62;5.05;;;;;;;;;;4125581;34;20622;-66
2021/04/24 06:31:38;;;;;;;7.47;5.28;;;;;;;;;;4138408;34;20107;-66
2021/04/24 06:34:04;;;;;;;7.60;5.90;;;;;;;;;;4138202;34;20158;-67
2021/04/24 06:36:30;;;;;;;9.63;6.28;;;;;;;;;;4138204;34;20452;-66
2021/04/24 06:38:58;;;;;;;17.67;6.00;;;;;;;;;;4125500;34;20127;-66
2021/04/24 06:41:25;;;;;;;8.23;5.75;;;;;;;;;;4137996;34;20131;-67
2021/04/24 06:43:51;;;;;;;9.57;6.00;;;;;;;;;;4125841;34;20123;-66
2021/04/24 06:46:17;;;;;;;9.30;6.18;;;;;;;;;;4137412;34;20099;-66
2021/04/24 06:48:43;;;;;;;8.25;6.12;;;;;;;;;;4137889;34;20253;-67
2021/04/24 06:51:09;;;;;;;8.98;6.05;;;;;;;;;;4138028;34;20143;-67
2021/04/24 06:53:34;;;;;;;8.30;6.87;;;;;;;;;;4138020;34;20119;-67
2021/04/24 06:56:00;;;;;;;9.43;6.30;;;;;;;;;;4137724;34;20219;-67
2021/04/24 06:58:26;;;;;;;7.97;5.80;;;;;;;;;;4137836;34;20139;-67
2021/04/24 07:00:54;;;;;;;10.70;5.40;;;;;;;;;;4122888;34;20124;-67
2021/04/24 07:03:20;;;;;;;14.93;9.27;;;;;;;;;;4124467;34;20512;-66
2021/04/24 07:05:46;;;;;;;19.30;9.18;;;;;;;;;;4124397;34;20132;-66
2021/04/24 07:08:12;;;;;;;10.73;6.72;;;;;;;;;;4124571;34;20293;-66
2021/04/24 07:10:37;;;;;;;11.15;8.35;;;;;;;;;;4124390;34;20139;-67
2021/04/24 07:13:04;;;;;;;8.77;6.45;;;;;;;;;;4124255;34;20124;-67
2021/04/24 07:15:30;;;;;;;9.23;7.55;;;;;;;;;;4124559;34;20219;-67
2021/04/24 07:17:56;;;;;;;8.18;6.03;;;;;;;;;;4124355;34;20183;-68
2021/04/24 07:20:22;;;;;;;17.40;12.70;;;;;;;;;;4125495;34;20124;-66
2021/04/24 07:22:49;;;;;;;10.38;7.12;;;;;;;;;;4124357;34;20135;-66
2021/04/24 07:25:15;;;;;;;18.70;9.48;;;;;;;;;;4127900;34;20103;-67
2021/04/24 07:27:41;;;;;;;9.98;6.20;;;;;;;;;;4137734;34;20230;-67
2021/04/24 07:30:08;;;;;;;12.00;6.60;;;;;;;;;;4137899;34;20143;-67
2021/04/24 07:32:34;;;;;;;9.35;7.07;;;;;;;;;;4137564;34;20108;-67
2021/04/24 07:35:01;;;;;;;10.35;6.47;;;;;;;;;;4136160;34;20125;-68
2021/04/24 07:37:28;;;;;;;8.15;5.47;;;;;;;;;;4125214;34;20530;-66
2021/04/24 07:39:54;;;;;;;8.50;6.43;;;;;;;;;;4125134;34;20138;-66
2021/04/24 07:42:20;;;;;;;6.72;5.53;;;;;;;;;;4125250;34;20620;-66
2021/04/24 07:44:45;;;;;;;7.87;5.55;;;;;;;;;;4137429;34;20135;-66
2021/04/24 07:47:11;;;;;;;8.98;7.47;;;;;;;;;;4137557;34;20130;-66
2021/04/24 07:49:37;;;;;;;7.30;5.87;;;;;;;;;;4137680;34;20206;-67
2021/04/24 07:52:04;;;;;;;6.05;5.32;;;;;;;;;;4137623;34;20179;-66
2021/04/24 07:54:31;;;;;;;7.53;5.95;;;;;;;;;;4137939;34;20135;-66
2021/04/24 07:56:58;;;;;;;7.43;6.35;;;;;;;;;;4124947;34;20531;-66
2021/04/24 07:59:24;;;;;;;8.88;5.70;;;;;;;;;;4137351;34;20508;-66
2021/04/24 08:01:50;;;;;;;7.85;5.80;;;;;;;;;;4137462;34;20111;-67
2021/04/24 08:04:18;;;;;;;6.53;5.72;;;;;;;;;;4124954;34;20147;-67
2021/04/24 08:06:44;;;;;;;7.15;6.45;;;;;;;;;;4137383;34;20565;-66
2021/04/24 08:09:10;;;;;;;6.93;5.68;;;;;;;;;;4137291;34;20115;-66
2021/04/24 08:11:36;;;;;;;7.68;5.22;;;;;;;;;;4137280;34;20112;-67
2021/04/24 08:14:03;;;;;;;6.78;6.07;;;;;;;;;;4137424;34;20146;-67
2021/04/24 08:16:29;;;;;;;8.40;6.00;;;;;;;;;;4137200;34;20289;-67
2021/04/24 08:18:55;;;;;;;6.72;6.03;;;;;;;;;;4124961;34;20135;-68
2021/04/24 08:21:21;;;;;;;9.68;6.53;;;;;;;;;;4137332;34;20111;-67
2021/04/24 08:23:47;;;;;;;6.80;5.70;;;;;;;;;;4137058;34;20141;-66
2021/04/24 08:26:13;;;;;;;7.22;5.80;;;;;;;;;;4137157;34;20134;-67
2021/04/24 08:28:39;;;;;;;6.18;5.35;;;;;;;;;;4137156;34;20480;-67
2021/04/24 08:31:05;;;;;;;6.18;4.90;;;;;;;;;;4137246;34;20112;-67
2021/04/24 08:33:31;;;;;;;6.62;5.43;;;;;;;;;;4137300;34;20231;-67
2021/04/24 08:35:57;;;;;;;6.93;4.70;;;;;;;;;;4137200;34;20130;-67
2021/04/24 08:38:23;;;;;;;6.45;4.95;;;;;;;;;;4137815;34;20247;-67
2021/04/24 08:40:49;;;;;;;8.48;5.25;;;;;;;;;;4142641;34;20116;-67
2021/04/24 08:43:15;;;;;;;5.72;5.22;;;;;;;;;;4131695;34;20099;-68
2021/04/24 08:45:42;;;;;;;8.02;5.65;;;;;;;;;;4145142;34;20106;-67
2021/04/24 08:48:08;;;;;;;12.90;6.00;;;;;;;;;;4130696;34;20107;-66
2021/04/24 08:50:35;;;;;;;13.62;7.22;;;;;;;;;;4137967;34;20120;-67
2021/04/24 08:53:02;;;;;;;16.60;6.60;;;;;;;;;;4125434;34;20584;-67
2021/04/24 08:55:31;;;;;;;10.90;7.00;;;;;;;;;;4125251;34;20125;-67
2021/04/24 08:57:57;;;;;;;10.10;6.15;;;;;;;;;;4137075;34;20095;-67
2021/04/24 09:00:27;;;;;;;11.63;6.97;;;;;;;;;;4136926;34;20173;-68
2021/04/24 09:02:54;;;;;;;10.27;8.15;;;;;;;;;;4136952;34;20115;-65
2021/04/24 09:05:23;;;;;;;16.02;8.30;;;;;;;;;;4136881;34;20205;-68
2021/04/24 09:08:00;;;;;;;12.98;9.13;;;;;;;;;;4136809;34;20573;-68
2021/04/24 09:10:27;;;;;;;18.73;9.27;;;;;;;;;;4136335;34;20178;-67
2021/04/24 09:12:52;;;;;;;11.60;7.78;;;;;;;;;;4124524;34;20617;-67
2021/04/24 09:15:23;;;;;;;19.85;8.45;;;;;;;;;;4136842;34;20122;-67
2021/04/24 09:18:00;;;;;;;16.42;7.75;;;;;;;;;;4136740;34;20147;-65
2021/04/24 09:20:28;;;;;;;9.43;6.87;;;;;;;;;;4136781;34;20207;-66
2021/04/24 09:23:05;;;;;;;11.68;7.97;;;;;;;;;;4125173;34;20104;-67
2021/04/24 09:25:41;;;;;;;10.65;7.10;;;;;;;;;;4125223;34;20211;-67
2021/04/24 09:28:09;;;;;;;11.88;7.18;;;;;;;;;;4124716;34;20112;-67
2021/04/24 09:30:37;;;;;;;14.87;6.32;;;;;;;;;;4136642;34;20099;-67
2021/04/24 09:33:09;;;;;;;15.23;6.93;;;;;;;;;;4136811;34;20185;-67
2021/04/24 09:35:48;;;;;;;11.15;7.03;;;;;;;;;;4124247;34;20186;-67
2021/04/24 09:38:22;;;;;;;7.72;6.93;;;;;;;;;;4136693;34;20127;-67
2021/04/24 09:41:06;;;;;;;10.48;7.15;;;;;;;;;;4136475;34;20201;-67
2021/04/24 09:44:00;;;;;;;9.75;6.97;;;;;;;;;;4124249;34;20095;-68
2021/04/24 09:46:48;;;;;;;13.38;7.87;;;;;;;;;;4136365;34;20091;-67
2021/04/24 09:49:27;;;;;;;12.43;7.87;;;;;;;;;;4136342;34;20095;-67
2021/04/24 09:51:53;;;;;;;7.97;5.10;;;;;;;;;;4124252;34;20221;-67
2021/04/24 09:54:21;;;;;;;6.53;4.90;;;;;;;;;;4136252;34;20206;-67
2021/04/24 09:57:04;;;;;;;13.20;9.15;;;;;;;;;;4124006;34;20502;-67
2021/04/24 09:59:30;;;;;;;14.35;10.98;;;;;;;;;;4136240;34;20119;-67
2021/04/24 10:02:01;;;;;;;18.00;11.70;;;;;;;;;;4123849;34;20225;-67
2021/04/24 10:04:27;;;;;;;13.45;9.40;;;;;;;;;;4136176;34;20508;-67
2021/04/24 10:06:55;;;;;;;15.10;9.80;;;;;;;;;;4123792;34;20214;-68
2021/04/24 10:09:26;;;;;;;13.10;10.77;;;;;;;;;;4136106;34;20128;-67
2021/04/24 10:12:02;;;;;;;14.07;10.20;;;;;;;;;;4136134;34;20127;-67
2021/04/24 10:14:40;;;;;;;17.87;11.80;;;;;;;;;;4136073;34;20203;-68
2021/04/24 10:17:07;;;;;;;18.60;10.45;;;;;;;;;;4123912;34;20453;-67
2021/04/24 10:19:35;;;;;;;16.05;10.80;;;;;;;;;;4136320;34;20129;-67
2021/04/24 10:22:01;;;;;;;16.75;11.40;;;;;;;;;;4136702;34;20111;-67
2021/04/24 10:24:27;;;;;;;20.00;11.82;;;;;;;;;;4138077;34;20195;-67
2021/04/24 10:26:53;;;;;;;14.85;11.80;;;;;;;;;;4137980;34;20508;-66
2021/04/24 10:29:20;;;;;;;15.27;11.95;;;;;;;;;;4138264;34;20125;-68
2021/04/24 10:31:46;;;;;;;14.63;11.80;;;;;;;;;;4137999;34;20111;-67
2021/04/24 10:34:13;;;;;;;12.77;10.23;;;;;;;;;;4138132;34;20123;-66
2021/04/24 10:36:39;;;;;;;14.25;10.70;;;;;;;;;;4137854;34;20120;-67
2021/04/24 10:39:19;;;;;;;25.12;11.00;;;;;;;;;;4137983;34;20134;-66
2021/04/24 10:41:48;;;;;;;13.60;10.10;;;;;;;;;;4126707;34;20114;-66
2021/04/24 10:44:15;;;;;;;11.85;9.95;;;;;;;;;;4125577;34;20122;-66
2021/04/24 10:46:49;;;;;;;14.18;9.60;;;;;;;;;;4137977;34;20453;-66
2021/04/24 10:49:25;;;;;;;18.83;10.30;;;;;;;;;;4137936;34;20109;-66
2021/04/24 10:52:07;;;;;;;15.70;10.00;;;;;;;;;;4137803;34;20258;-66
2021/04/24 10:54:39;;;;;;;11.60;9.60;;;;;;;;;;4137909;34;20127;-66
2021/04/24 10:57:43;;;;;;;14.00;10.25;;;;;;;;;;4125487;34;20469;-66
2021/04/24 11:00:15;;;;;;;15.82;10.68;;;;;;;;;;4137803;34;20199;-66
2021/04/24 11:02:55;;;;;;;19.35;12.00;;;;;;;;;;4137775;34;20258;-66
2021/04/24 11:05:30;;;;;;;17.92;11.05;;;;;;;;;;4137991;34;20426;-66
2021/04/24 11:08:11;;;;;;;16.52;11.25;;;;;;;;;;4137714;34;20311;-67
2021/04/24 11:10:44;;;;;;;15.88;11.73;;;;;;;;;;4137646;34;20100;-67
2021/04/24 11:13:11;;;;;;;13.23;11.43;;;;;;;;;;4138063;34;20084;-67
2021/04/24 11:15:37;;;;;;;12.82;10.40;;;;;;;;;;4137713;34;20143;-67
2021/04/24 11:18:03;;;;;;;13.60;10.20;;;;;;;;;;4137833;34;20099;-67
2021/04/24 11:21:04;;;;;;;13.30;10.70;;;;;;;;;;4137598;34;20200;-66
2021/04/24 11:23:30;;;;;;;15.20;10.63;;;;;;;;;;4137845;34;20253;-66
2021/04/24 11:25:59;;;;;;;11.43;9.73;;;;;;;;;;4137455;34;20107;-66
2021/04/24 11:28:25;;;;;;;12.23;10.30;;;;;;;;;;4137320;34;20112;-66
2021/04/24 11:30:58;;;;;;;12.60;10.25;;;;;;;;;;4137804;34;20106;-66
2021/04/24 11:33:48;;;;;;;15.50;11.77;;;;;;;;;;4137481;34;20518;-66
2021/04/24 11:36:25;;;;;;;12.40;10.95;;;;;;;;;;4137497;34;20135;-66
2021/04/24 11:38:55;;;;;;;14.52;11.43;;;;;;;;;;4137535;34;20120;-66
2021/04/24 11:41:31;;;;;;;16.25;11.10;;;;;;;;;;4137521;34;20118;-66
2021/04/24 11:43:58;;;;;;;16.73;11.70;;;;;;;;;;4125221;34;20095;-66
2021/04/24 11:46:34;;;;;;;12.18;9.57;;;;;;;;;;4137490;34;20118;-66
2021/04/24 11:49:02;;;;;;;14.32;10.27;;;;;;;;;;4137523;34;20088;-66
2021/04/24 11:51:51;;;;;;;11.80;9.05;;;;;;;;;;4137587;34;20134;-66
2021/04/24 11:54:26;;;;;;;14.45;9.27;;;;;;;;;;4137632;34;20550;-66
2021/04/24 11:56:52;;;;;;;11.75;9.00;;;;;;;;;;4137184;34;20205;-66
2021/04/24 11:59:29;;;;;;;12.40;9.77;;;;;;;;;;4137287;34;20111;-66
2021/04/24 12:02:01;;;;;;;13.75;10.23;;;;;;;;;;4137517;34;20116;-67
2021/04/24 12:04:31;;;;;;;10.85;9.57;;;;;;;;;;4125212;34;20118;-66
2021/04/24 12:07:13;;;;;;;13.40;9.77;;;;;;;;;;4137206;34;20099;-66
2021/04/24 12:10:03;;;;;;;15.38;10.98;;;;;;;;;;4137401;34;20199;-66
2021/04/24 12:12:35;;;;;;;16.05;10.32;;;;;;;;;;4137395;34;20538;-65
2021/04/24 12:15:10;;;;;;;14.18;10.20;;;;;;;;;;4137236;34;20100;-66
2021/04/24 12:18:03;;;;;;;14.95;9.82;;;;;;;;;;4137398;34;20114;-67
2021/04/24 12:20:30;;;;;;;16.40;11.93;;;;;;;;;;4130363;34;20114;-66
2021/04/24 12:22:58;;;;;;;18.75;11.48;;;;;;;;;;4137090;34;20122;-66
2021/04/24 12:25:25;;;;;;;20.27;12.15;;;;;;;;;;4137223;34;20107;-65
2021/04/24 12:27:52;;;;;;;17.90;11.10;;;;;;;;;;4136914;34;20162;-67
2021/04/24 12:30:21;;;;;;;15.20;12.30;;;;;;;;;;4124741;34;20118;-66
2021/04/24 12:32:53;;;;;;;17.75;12.18;;;;;;;;;;4137079;34;20103;-66
2021/04/24 12:35:24;;;;;;;12.45;8.30;;;;;;;;;;4136863;34;20231;-68
2021/04/24 12:38:03;;;;;;;17.70;8.25;;;;;;;;;;4137305;34;20258;-66
2021/04/24 12:40:30;;;;;;;15.30;9.52;;;;;;;;;;4137171;34;20114;-67
2021/04/24 12:43:35;;;;;;;18.05;11.00;;;;;;;;;;4136871;34;20175;-67
2021/04/24 12:46:03;;;;;;;17.50;11.23;;;;;;;;;;4123768;34;20213;-67
2021/04/24 12:48:40;;;;;;;10.57;9.40;;;;;;;;;;4136901;34;20242;-67
2021/04/24 12:51:11;;;;;;;22.45;12.88;;;;;;;;;;4125183;34;20123;-67
2021/04/24 12:53:40;;;;;;;15.40;11.63;;;;;;;;;;4137382;34;20103;-67
2021/04/24 12:56:12;;;;;;;28.35;18.70;;;;;;;;;;4124676;34;20116;-67
2021/04/24 12:58:39;;;;;;;16.35;11.93;;;;;;;;;;4136788;34;20170;-68
2021/04/24 13:01:09;;;;;;;17.25;10.25;;;;;;;;;;4136816;34;20123;-66
2021/04/24 13:03:35;;;;;;;19.83;12.40;;;;;;;;;;4136829;34;20135;-66
2021/04/24 13:06:19;;;;;;;13.48;9.65;;;;;;;;;;4136745;34;20224;-66
2021/04/24 13:08:58;;;;;;;16.37;10.90;;;;;;;;;;4136823;34;20099;-66
2021/04/24 13:11:24;;;;;;;13.10;8.93;;;;;;;;;;4136936;34;20131;-67
2021/04/24 13:14:08;;;;;;;16.33;9.50;;;;;;;;;;4136678;34;20139;-65
2021/04/24 13:16:34;;;;;;;27.98;11.82;;;;;;;;;;4125143;34;20135;-65
2021/04/24 13:19:00;;;;;;;13.50;8.68;;;;;;;;;;4136875;34;20523;-65
2021/04/24 13:21:35;;;;;;;11.65;8.82;;;;;;;;;;4136647;34;20127;-66
2021/04/24 13:24:08;;;;;;;16.05;10.32;;;;;;;;;;4124951;34;20202;-66
2021/04/24 13:26:36;;;;;;;11.68;8.77;;;;;;;;;;4136440;34;20171;-66
2021/04/24 13:29:24;;;;;;;19.60;11.27;;;;;;;;;;4136475;34;20521;-66
2021/04/24 13:31:59;;;;;;;16.00;11.20;;;;;;;;;;4124085;34;20405;-67
2021/04/24 13:34:25;;;;;;;18.77;14.23;;;;;;;;;;4136834;34;20624;-67
2021/04/24 13:36:58;;;;;;;10.73;8.23;;;;;;;;;;4136606;34;20464;-67
2021/04/24 13:39:26;;;;;;;19.12;11.00;;;;;;;;;;4136468;34;20115;-67
2021/04/24 13:41:52;;;;;;;26.65;13.52;;;;;;;;;;4136541;34;20098;-67
2021/04/24 13:44:19;;;;;;;24.98;16.05;;;;;;;;;;4124013;34;20214;-67
2021/04/24 13:46:46;;;;;;;26.15;13.15;;;;;;;;;;4136455;34;20448;-67
2021/04/24 13:49:19;;;;;;;16.52;10.15;;;;;;;;;;4136397;34;20118;-67
2021/04/24 13:51:46;;;;;;;15.05;7.90;;;;;;;;;;4136547;34;20322;-67
2021/04/24 13:54:12;;;;;;;15.45;9.02;;;;;;;;;;4136515;34;20124;-67
2021/04/24 13:56:38;;;;;;;14.75;8.13;;;;;;;;;;4137432;34;20231;-66
2021/04/24 13:59:07;;;;;;;9.50;8.23;;;;;;;;;;4125928;34;20143;-67
2021/04/24 14:01:33;;;;;;;13.18;7.30;;;;;;;;;;4125745;34;20116;-67
2021/04/24 14:04:00;;;;;;;11.85;7.70;;;;;;;;;;4138168;34;20118;-65
2021/04/24 14:06:26;;;;;;;9.52;7.50;;;;;;;;;;4137508;34;20111;-66
2021/04/24 14:08:52;;;;;;;12.27;7.15;;;;;;;;;;4152177;34;20126;-66
2021/04/24 14:11:18;;;;;;;12.98;8.10;;;;;;;;;;4153423;34;20538;-66
2021/04/24 14:13:44;;;;;;;17.48;11.98;;;;;;;;;;4152079;34;20134;-67
2021/04/24 14:16:10;;;;;;;34.50;22.42;;;;;;;;;;4151590;34;20507;-66
2021/04/24 14:18:36;;;;;;;32.95;19.85;;;;;;;;;;4151724;34;20141;-67
2021/04/24 14:21:03;;;;;;;28.35;15.30;;;;;;;;;;4138988;34;20206;-66
2021/04/24 14:23:30;;;;;;;19.73;13.98;;;;;;;;;;4151712;34;20146;-66
2021/04/24 14:25:56;;;;;;;18.20;14.73;;;;;;;;;;4144507;34;20536;-67
2021/04/24 14:28:22;;;;;;;17.60;13.10;;;;;;;;;;4137968;34;20521;-67
2021/04/24 14:30:48;;;;;;;20.92;10.73;;;;;;;;;;4125860;34;20116;-67
2021/04/24 14:33:14;;;;;;;18.80;11.63;;;;;;;;;;4138058;34;20119;-67
2021/04/24 14:35:40;;;;;;;18.20;11.95;;;;;;;;;;4137980;34;20201;-67
2021/04/24 14:38:05;;;;;;;21.10;11.88;;;;;;;;;;4125480;34;20134;-66
2021/04/24 14:40:31;;;;;;;14.13;10.30;;;;;;;;;;4137912;34;20131;-66
2021/04/24 14:42:57;;;;;;;13.75;9.98;;;;;;;;;;4138040;34;20112;-66
2021/04/24 14:45:24;;;;;;;17.15;12.23;;;;;;;;;;4137964;34;20559;-66
2021/04/24 14:47:49;;;;;;;14.48;11.57;;;;;;;;;;4138365;34;20097;-67
2021/04/24 14:50:16;;;;;;;13.75;10.38;;;;;;;;;;4138088;34;20155;-68
2021/04/24 14:52:44;;;;;;;10.95;9.82;;;;;;;;;;4138120;34;20116;-66
2021/04/24 14:55:14;;;;;;;22.80;11.43;;;;;;;;;;4138111;34;20118;-66
2021/04/24 14:57:41;;;;;;;11.23;9.45;;;;;;;;;;4137718;34;20128;-66
2021/04/24 15:00:08;;;;;;;21.17;11.57;;;;;;;;;;4138079;34;20612;-67
2021/04/24 15:02:34;;;;;;;16.83;11.23;;;;;;;;;;4137682;34;20140;-67
2021/04/24 15:05:00;;;;;;;15.68;9.80;;;;;;;;;;4138017;34;20208;-67
2021/04/24 15:07:26;;;;;;;16.77;10.60;;;;;;;;;;4137550;34;20124;-66